Hastings, New York
Current Conditions -  °F | °C
As of 9:54 AM on Sunday 21 Dec 2014 (Local Time) from KFZY Reporting Station
Haze Haze  
Wind Chill: 29°   Ceiling: 2700
Heat Index: 29°   Visibility: 6mi
Dew Point: 23°   Wind: 3mph
Humidity: 78%   Direction: 160°SSE
Pressure: 30.33"   Gusts: NA
Location:  43.37°N, 76.15°W
Report Text: KFZY 211454Z AUTO 16003KT 6SM HZ OVC027 M02/M05 A3033 RMK AO2 SLP278 T10171050 53013
Loading
Personal Weather Stations






























Interactive Weather Map New forecast layout! Learn more

10-Day Weather Forecast

Advertisements
Track Severe Weather on mobile